Time;durP1;ratioP1;P1;durP2;ratioP2;P2;SDS_P1;SDS_P2;PMS_P1;PMS_P2;Temp;Humidity;BMP_temperature;BMP_pressure;BME280_temperature;BME280_humidity;BME280_pressure;Samples;Min_cycle;Max_cycle;Signal;HPM_P1;HPM_P2
2023/11/02 00:01:48;;;;;;;30.50;20.75;;;333.30;2329.60;;;;;;5050000;28;20021;-69
2023/11/02 00:04:14;;;;;;;26.02;17.95;;;333.20;2329.60;;;;;;5049271;28;20059;-70
2023/11/02 00:06:39;;;;;;;23.88;17.48;;;333.30;2329.60;;;;;;5049613;28;20118;-70
2023/11/02 00:09:28;;;;;;;24.75;15.35;;;333.30;2329.60;;;;;;5049097;28;20025;-70
2023/11/02 00:11:57;;;;;;;25.13;16.02;;;333.30;2329.60;;;;;;5049003;28;20108;-69
2023/11/02 00:14:26;;;;;;;21.90;15.35;;;333.40;2329.60;;;;;;5049254;28;20462;-70
2023/11/02 00:16:52;;;;;;;20.67;14.40;;;333.40;2329.60;;;;;;5049662;28;20032;-70
2023/11/02 00:19:28;;;;;;;19.38;13.13;;;333.40;2329.60;;;;;;5048927;28;20036;-70
2023/11/02 00:21:54;;;;;;;15.25;11.05;;;333.40;2329.60;;;;;;5032814;28;20053;-69
2023/11/02 00:24:20;;;;;;;18.13;14.23;;;333.50;2329.60;;;;;;5038995;28;20028;-70
2023/11/02 00:26:46;;;;;;;11.88;8.85;;;333.50;2329.60;;;;;;5049149;28;20033;-70
2023/11/02 00:29:11;;;;;;;18.80;8.02;;;333.50;2329.60;;;;;;5048893;28;20044;-70
2023/11/02 00:31:37;;;;;;;10.95;7.10;;;333.40;2329.60;;;;;;5048969;28;20040;-70
2023/11/02 00:34:03;;;;;;;11.07;7.85;;;333.50;2329.60;;;;;;5049124;28;20028;-70
2023/11/02 00:36:32;;;;;;;14.98;10.52;;;333.40;2329.60;;;;;;5048693;28;20025;-70
2023/11/02 00:38:58;;;;;;;12.93;10.32;;;333.50;2329.60;;;;;;5050660;28;20474;-71
2023/11/02 00:41:24;;;;;;;13.82;7.03;;;333.40;2329.60;;;;;;5053291;28;20075;-71
2023/11/02 00:43:50;;;;;;;10.10;7.20;;;333.30;2329.60;;;;;;5052980;28;20025;-71
2023/11/02 00:46:16;;;;;;;15.27;9.05;;;333.20;2329.60;;;;;;5053845;28;20028;-70
2023/11/02 00:48:43;;;;;;;14.27;9.32;;;333.20;2329.60;;;;;;5053393;28;20375;-71
2023/11/02 00:51:17;;;;;;;14.15;8.15;;;333.40;2329.60;;;;;;5041951;28;20033;-71
2023/11/02 00:53:44;;;;;;;;;;;333.10;2329.60;;;;;;5038831;28;20029;-72
2023/11/02 00:56:11;;;;;;;12.90;7.43;;;333.10;2329.60;;;;;;5053499;28;19909;-71
2023/11/02 00:58:47;;;;;;;16.80;8.75;;;333.10;2329.60;;;;;;5053290;28;20427;-70
2023/11/02 01:01:15;;;;;;;11.27;7.90;;;333.20;2329.60;;;;;;5053240;28;20098;-71
2023/11/02 01:03:46;;;;;;;15.25;9.25;;;333.30;2329.60;;;;;;5053143;28;20390;-70
2023/11/02 01:06:33;;;;;;;23.75;14.20;;;333.40;2329.60;;;;;;5052759;28;20391;-70
2023/11/02 01:09:09;;;;;;;24.63;15.25;;;333.40;2329.60;;;;;;5052917;28;20066;-70
2023/11/02 01:11:37;;;;;;;22.75;15.43;;;333.40;2329.60;;;;;;5052662;28;20087;-71
2023/11/02 01:14:22;;;;;;;20.27;12.60;;;333.50;2329.60;;;;;;5052351;28;20024;-70
2023/11/02 01:16:48;;;;;;;11.35;7.90;;;333.40;2329.60;;;;;;5052385;28;20029;-71
2023/11/02 01:19:50;;;;;;;13.18;7.95;;;333.40;2329.60;;;;;;5052926;28;20021;-70
2023/11/02 01:22:32;;;;;;;14.60;7.80;;;333.40;2329.60;;;;;;5032945;28;20033;-71
2023/11/02 01:25:18;;;;;;;11.88;8.13;;;333.40;2329.60;;;;;;5031659;28;20498;-71
2023/11/02 01:27:44;;;;;;;10.77;6.55;;;333.30;2329.60;;;;;;5046208;28;20029;-69
2023/11/02 01:30:36;;;;;;;11.43;5.72;;;333.20;2329.60;;;;;;5052209;28;20040;-70
2023/11/02 01:33:25;;;;;;;7.28;5.22;;;333.10;2329.60;;;;;;5052272;28;20021;-71
2023/11/02 01:35:50;;;;;;;7.20;4.50;;;333.00;2329.60;;;;;;5052162;28;20039;-70
2023/11/02 01:38:16;;;;;;;9.50;3.78;;;333.10;2329.60;;;;;;5052522;28;20092;-70
2023/11/02 01:40:51;;;;;;;7.18;4.80;;;332.90;2329.60;;;;;;5052246;28;20021;-70
2023/11/02 01:43:26;;;;;;;8.38;4.25;;;333.00;2329.60;;;;;;5052237;28;20029;-71
2023/11/02 01:45:55;;;;;;;12.15;4.80;;;333.10;2329.60;;;;;;5051966;28;20444;-69
2023/11/02 01:48:30;;;;;;;6.93;4.20;;;333.20;2329.60;;;;;;5052094;28;20387;-70
2023/11/02 01:51:03;;;;;;;6.15;3.83;;;333.40;2329.60;;;;;;5051048;28;20483;-71
2023/11/02 01:53:54;;;;;;;6.47;3.35;;;333.50;2329.60;;;;;;5051944;28;20025;-71
2023/11/02 01:56:28;;;;;;;5.75;3.88;;;333.50;2329.60;;;;;;5052167;28;20429;-70
2023/11/02 01:59:02;;;;;;;8.13;4.20;;;333.60;2329.60;;;;;;5028022;28;20021;-70
2023/11/02 02:01:37;;;;;;;7.43;4.38;;;333.60;2329.60;;;;;;5044278;28;20037;-71
2023/11/02 02:04:03;;;;;;;5.63;3.70;;;333.60;2329.60;;;;;;5052389;28;20423;-71
2023/11/02 02:06:38;;;;;;;7.13;3.65;;;333.60;2329.60;;;;;;5051567;28;20063;-71
2023/11/02 02:09:22;;;;;;;7.28;3.83;;;333.60;2329.60;;;;;;5051919;28;20033;-71
2023/11/02 02:12:00;;;;;;;7.65;5.10;;;333.70;2329.60;;;;;;5051738;28;20037;-71
2023/11/02 02:14:55;;;;;;;9.73;5.75;;;333.70;2329.60;;;;;;5052954;28;20029;-72
2023/11/02 02:17:41;;;;;;;7.07;3.97;;;333.60;2329.60;;;;;;5033427;28;20024;-71
2023/11/02 02:20:09;;;;;;;5.63;2.72;;;333.60;2329.60;;;;;;5052641;28;20021;-73
2023/11/02 02:22:38;;;;;;;4.32;2.83;;;333.70;2329.60;;;;;;5053206;28;20017;-74
2023/11/02 02:25:16;;;;;;;17.38;8.60;;;358.40;2329.60;;;;;;5053045;28;20514;-73
2023/11/02 02:28:13;;;;;;;6.05;4.45;;;358.40;2329.60;;;;;;5051538;28;20044;-69
2023/11/02 02:31:14;;;;;;;6.63;3.97;;;358.50;2329.60;;;;;;5045698;28;20391;-71
2023/11/02 02:33:58;;;;;;;7.22;3.92;;;358.50;2329.60;;;;;;5038341;28;20034;-70
2023/11/02 02:36:31;;;;;;;17.15;9.90;;;358.50;2329.60;;;;;;5049320;28;20025;-70
2023/11/02 02:39:08;;;;;;;10.80;7.07;;;358.50;2329.60;;;;;;5048928;28;20595;-71
2023/11/02 02:41:41;;;;;;;17.33;10.40;;;358.50;2329.60;;;;;;5049209;28;20032;-71
2023/11/02 02:44:08;;;;;;;;;;;358.50;2329.60;;;;;;5046622;28;20383;-71
2023/11/02 02:46:37;;;;;;;20.02;12.40;;;358.40;2329.60;;;;;;5037698;28;19911;-71
2023/11/02 02:49:03;;;;;;;29.45;16.80;;;358.40;2329.60;;;;;;5048418;28;20071;-71
2023/11/02 02:51:32;;;;;;;18.45;11.65;;;358.40;2329.60;;;;;;5048145;28;20482;-70
2023/11/02 02:54:02;;;;;;;10.88;7.55;;;358.40;2329.60;;;;;;5048296;28;20037;-71
2023/11/02 02:56:30;;;;;;;12.70;8.75;;;358.50;2329.60;;;;;;5048614;28;20419;-71
2023/11/02 02:59:01;;;;;;;25.58;15.60;;;358.40;2329.60;;;;;;5048103;28;20025;-69
2023/11/02 03:01:35;;;;;;;13.02;10.35;;;358.40;2329.60;;;;;;5048103;28;20103;-70
2023/11/02 03:04:02;;;;;;;20.45;9.15;;;333.70;2329.60;;;;;;5032078;28;20748;-70
2023/11/02 03:06:29;;;;;;;13.30;9.70;;;333.70;2329.60;;;;;;5041124;28;20040;-71
2023/11/02 03:08:57;;;;;;;16.38;10.13;;;333.70;2329.60;;;;;;5048372;28;20376;-69
2023/11/02 03:11:26;;;;;;;17.98;12.30;;;333.70;2329.60;;;;;;5050554;28;20087;-69
2023/11/02 03:13:55;;;;;;;19.63;14.15;;;358.40;2329.60;;;;;;5050256;28;20372;-70
2023/11/02 03:16:21;;;;;;;13.00;9.45;;;358.40;2329.60;;;;;;5050455;28;20035;-70
2023/11/02 03:18:47;;;;;;;15.30;10.05;;;358.40;2329.60;;;;;;5050230;28;20051;-69
2023/11/02 03:21:14;;;;;;;18.40;13.98;;;358.40;2329.60;;;;;;5049900;28;20084;-70
2023/11/02 03:23:57;;;;;;;13.50;10.05;;;358.40;2329.60;;;;;;5050425;28;20036;-71
2023/11/02 03:26:46;;;;;;;12.02;7.00;;;358.40;2329.60;;;;;;5049569;28;20391;-69
2023/11/02 03:29:26;;;;;;;6.45;4.40;;;358.40;2329.60;;;;;;5044537;28;20052;-70
2023/11/02 03:32:03;;;;;;;8.07;4.50;;;358.40;2329.60;;;;;;5046841;28;20045;-70
2023/11/02 03:34:38;;;;;;;13.43;7.55;;;358.50;2329.60;;;;;;5046795;28;20458;-71
2023/11/02 03:37:59;;;;;;;11.18;6.50;;;358.50;2329.60;;;;;;5030502;28;20033;-70
2023/11/02 03:40:49;;;;;;;7.82;5.30;;;358.50;2329.60;;;;;;4893188;29;20485;-71
2023/11/02 03:43:18;;;;;;;13.05;5.25;;;358.40;2329.60;;;;;;4892554;29;20512;-71
2023/11/02 03:46:21;;;;;;;12.52;8.52;;;358.50;2329.60;;;;;;4892920;29;20036;-70
2023/11/02 03:48:51;;;;;;;14.77;9.63;;;358.40;2329.60;;;;;;4892950;29;20551;-70
2023/11/02 03:51:29;;;;;;;30.75;18.38;;;358.40;2329.60;;;;;;4892640;29;20127;-70
2023/11/02 03:54:33;;;;;;;17.92;10.05;;;333.70;2329.60;;;;;;4892832;29;20196;-71
2023/11/02 03:57:05;;;;;;;10.38;4.60;;;333.70;2329.60;;;;;;4892658;29;20029;-69
2023/11/02 03:59:43;;;;;;;11.32;6.88;;;333.70;2329.60;;;;;;4892176;29;20033;-69
2023/11/02 04:02:22;;;;;;;7.70;5.88;;;333.70;2329.60;;;;;;4892666;29;20087;-70
2023/11/02 04:04:52;;;;;;;10.40;4.25;;;333.70;2329.60;;;;;;4891918;29;20062;-70
2023/11/02 04:07:31;;;;;;;4.70;3.22;;;333.70;2329.60;;;;;;4885268;29;20440;-69
2023/11/02 04:10:19;;;;;;;5.93;2.80;;;333.70;2329.60;;;;;;4892473;29;20039;-69
2023/11/02 04:13:03;;;;;;;4.47;2.30;;;333.70;2329.60;;;;;;4889170;29;20052;-68
2023/11/02 04:15:29;;;;;;;6.00;2.80;;;358.40;2329.60;;;;;;4916849;29;20027;-71
2023/11/02 04:17:54;;;;;;;8.52;4.93;;;358.40;2329.60;;;;;;5029105;28;20036;-69
2023/11/02 04:20:20;;;;;;;12.23;7.28;;;358.40;2329.60;;;;;;5048984;28;20493;-70
2023/11/02 04:22:46;;;;;;;12.57;7.53;;;358.40;2329.60;;;;;;5048831;28;20027;-70
2023/11/02 04:25:12;;;;;;;18.58;10.88;;;358.40;2329.60;;;;;;5048805;28;20474;-68
2023/11/02 04:27:37;;;;;;;14.63;9.15;;;358.40;2329.60;;;;;;5049609;28;20304;-70
2023/11/02 04:30:04;;;;;;;11.98;8.32;;;358.40;2329.60;;;;;;5048432;28;20067;-70
2023/11/02 04:32:31;;;;;;;16.52;8.68;;;358.40;2329.60;;;;;;5049374;28;20032;-71
2023/11/02 04:34:58;;;;;;;10.50;6.32;;;333.70;2329.60;;;;;;5049127;28;20017;-71
2023/11/02 04:37:24;;;;;;;8.57;5.72;;;333.70;2329.60;;;;;;5048222;28;20029;-71
2023/11/02 04:39:50;;;;;;;10.45;5.43;;;358.40;2329.60;;;;;;5040983;28;20616;-70
2023/11/02 04:42:17;;;;;;;7.43;4.82;;;333.70;2329.60;;;;;;5031568;28;20052;-69
2023/11/02 04:44:43;;;;;;;7.60;4.63;;;358.40;2329.60;;;;;;5036365;28;20477;-70
2023/11/02 04:47:09;;;;;;;10.45;7.38;;;358.40;2329.60;;;;;;5027851;28;20053;-69
2023/11/02 04:49:35;;;;;;;12.95;7.82;;;333.70;2329.60;;;;;;5039948;28;20057;-71
2023/11/02 04:52:06;;;;;;;10.95;7.40;;;333.50;2329.60;;;;;;5043881;28;20041;-69
2023/11/02 04:54:33;;;;;;;12.82;7.30;;;333.60;2329.60;;;;;;5038373;28;20518;-70
2023/11/02 04:57:00;;;;;;;12.82;6.45;;;333.60;2329.60;;;;;;5044704;28;20029;-70
2023/11/02 04:59:28;;;;;;;10.40;6.20;;;333.60;2329.60;;;;;;5048488;28;20017;-69
2023/11/02 05:01:57;;;;;;;9.13;5.57;;;333.70;2329.60;;;;;;5048674;28;20033;-69
2023/11/02 05:04:23;;;;;;;8.20;4.78;;;333.60;2329.60;;;;;;5048669;28;20013;-69
2023/11/02 05:06:49;;;;;;;11.70;5.65;;;333.70;2329.60;;;;;;5048317;28;20032;-70
2023/11/02 05:09:16;;;;;;;10.75;6.13;;;333.70;2329.60;;;;;;5035996;28;20034;-70
2023/11/02 05:11:42;;;;;;;11.27;6.75;;;333.70;2329.60;;;;;;5048317;28;20112;-70
2023/11/02 05:14:08;;;;;;;7.63;5.20;;;333.70;2329.60;;;;;;5048279;28;20029;-70
2023/11/02 05:16:34;;;;;;;6.97;4.82;;;358.40;2329.60;;;;;;5048747;28;20399;-70
2023/11/02 05:19:00;;;;;;;12.63;5.05;;;358.40;2329.60;;;;;;5047846;28;20119;-70
2023/11/02 05:21:25;;;;;;;8.63;4.60;;;358.40;2329.60;;;;;;5028027;28;20049;-69
2023/11/02 05:23:51;;;;;;;5.47;4.38;;;358.50;2329.60;;;;;;5036670;28;20036;-71
2023/11/02 05:26:17;;;;;;;8.63;5.68;;;358.60;2329.60;;;;;;5049885;28;20797;-69
2023/11/02 05:28:43;;;;;;;8.07;4.80;;;358.50;2329.60;;;;;;5037767;28;20043;-71
2023/11/02 05:31:08;;;;;;;20.83;13.02;;;358.50;2329.60;;;;;;5039579;28;20045;-71
2023/11/02 05:33:36;;;;;;;24.30;17.08;;;333.60;2329.60;;;;;;5038011;28;20029;-68
2023/11/02 05:36:02;;;;;;;19.60;14.02;;;333.70;2329.60;;;;;;5029921;28;20047;-70
2023/11/02 05:38:29;;;;;;;66.68;37.55;;;333.70;2329.60;;;;;;5030425;28;20013;-68
2023/11/02 05:40:54;;;;;;;85.45;48.15;;;333.70;2329.60;;;;;;5033369;28;20104;-70
2023/11/02 05:43:20;;;;;;;69.07;40.00;;;333.70;2329.60;;;;;;5051350;28;20048;-71
2023/11/02 05:45:46;;;;;;;54.00;29.77;;;358.40;2329.60;;;;;;5051394;28;20029;-70
2023/11/02 05:48:11;;;;;;;19.83;10.68;;;333.70;2329.60;;;;;;5051724;28;20021;-70
2023/11/02 05:50:37;;;;;;;18.75;9.27;;;333.50;2329.60;;;;;;5051605;28;20029;-71
2023/11/02 05:53:03;;;;;;;18.38;9.25;;;333.50;2329.60;;;;;;5051692;28;20025;-71
2023/11/02 05:55:29;;;;;;;13.98;8.52;;;333.50;2329.60;;;;;;5047728;28;20100;-70
2023/11/02 05:57:55;;;;;;;11.90;6.63;;;333.50;2329.60;;;;;;5027127;28;20113;-71
2023/11/02 06:00:21;;;;;;;10.05;6.75;;;333.60;2329.60;;;;;;5043346;28;20525;-69
2023/11/02 06:02:46;;;;;;;9.77;6.15;;;333.70;2329.60;;;;;;5050823;28;20491;-70
2023/11/02 06:05:12;;;;;;;22.95;12.80;;;358.40;2329.60;;;;;;5051167;28;20029;-71
2023/11/02 06:07:38;;;;;;;22.90;12.15;;;358.50;2329.60;;;;;;5050529;28;20036;-71
2023/11/02 06:10:04;;;;;;;21.95;16.17;;;358.60;2329.60;;;;;;5050891;28;20044;-70
2023/11/02 06:12:30;;;;;;;13.95;10.52;;;358.80;2329.60;;;;;;5050840;28;20521;-70
2023/11/02 06:14:56;;;;;;;16.55;12.27;;;358.80;2329.60;;;;;;5050593;28;20021;-71
2023/11/02 06:17:23;;;;;;;20.92;13.35;;;359.00;2329.60;;;;;;5050340;28;20497;-69
2023/11/02 06:19:48;;;;;;;27.80;17.65;;;359.20;2329.60;;;;;;5050793;28;20032;-70
2023/11/02 06:22:14;;;;;;;44.95;28.77;;;359.30;2329.60;;;;;;5050499;28;20037;-69
2023/11/02 06:24:41;;;;;;;39.72;26.15;;;359.30;2329.60;;;;;;5049964;28;20031;-70
2023/11/02 06:27:10;;;;;;;51.22;34.67;;;384.10;2329.60;;;;;;5044117;28;20037;-69
2023/11/02 06:29:36;;;;;;;51.50;35.80;;;384.10;2329.60;;;;;;5047851;28;20079;-69
2023/11/02 06:32:03;;;;;;;61.55;40.20;;;384.30;2329.60;;;;;;5040428;28;20045;-69
2023/11/02 06:34:35;;;;;;;47.33;33.65;;;384.30;2329.60;;;;;;5031687;28;20029;-70
2023/11/02 06:37:00;;;;;;;49.40;31.85;;;384.50;2329.60;;;;;;5042977;28;20020;-71
2023/11/02 06:39:26;;;;;;;57.72;36.53;;;384.70;2329.60;;;;;;5047153;28;20083;-69
2023/11/02 06:41:52;;;;;;;49.85;34.33;;;384.80;2329.60;;;;;;5047536;28;20529;-70
2023/11/02 06:44:17;;;;;;;43.05;28.90;;;409.60;2355.20;;;;;;5035864;28;20059;-70
2023/11/02 06:46:43;;;;;;;36.58;26.42;;;409.70;2355.20;;;;;;5036062;28;20025;-70
2023/11/02 06:49:09;;;;;;;29.45;20.70;;;409.90;2355.20;;;;;;5041311;28;20062;-68
2023/11/02 06:51:36;;;;;;;49.60;31.77;;;410.20;2355.20;;;;;;5036695;28;20029;-69
2023/11/02 06:54:02;;;;;;;49.63;34.42;;;410.20;2355.20;;;;;;5041651;28;20077;-68
2023/11/02 06:56:28;;;;;;;46.88;32.50;;;410.30;2355.20;;;;;;5042968;28;20040;-69
2023/11/02 06:58:54;;;;;;;56.72;37.25;;;410.50;2355.20;;;;;;5050315;28;20070;-70
2023/11/02 07:01:20;;;;;;;56.20;36.65;;;410.50;2355.20;;;;;;5049177;28;20067;-69
2023/11/02 07:03:46;;;;;;;42.17;31.65;;;435.20;2355.20;;;;;;5044431;28;20471;-70
2023/11/02 07:06:11;;;;;;;50.55;34.45;;;435.30;2355.20;;;;;;5023393;28;20033;-71
2023/11/02 07:08:38;;;;;;;52.67;35.58;;;435.30;2355.20;;;;;;5033038;28;20025;-68
2023/11/02 07:11:04;;;;;;;50.58;36.55;;;435.30;2355.20;;;;;;5050264;28;20033;-66
2023/11/02 07:13:30;;;;;;;50.45;34.00;;;410.50;2355.20;;;;;;5044924;28;20411;-75
2023/11/02 07:15:57;;;;;;;46.05;29.23;;;410.10;2355.20;;;;;;5031262;28;20430;-76
2023/11/02 07:18:23;;;;;;;35.40;22.70;;;409.90;2355.20;;;;;;5036470;28;20064;-75
2023/11/02 07:20:49;;;;;;;21.48;16.90;;;409.80;2355.20;;;;;;5039593;28;20069;-74
2023/11/02 07:23:14;;;;;;;26.98;16.88;;;410.10;2355.20;;;;;;5045195;28;20630;-77
2023/11/02 07:25:41;;;;;;;22.75;15.65;;;;;;;;;;5033852;28;20112;-76
2023/11/02 07:28:06;;;;;;;23.73;16.38;;;487.10;2380.80;;;;;;5044355;28;20025;-75
2023/11/02 07:30:32;;;;;;;27.25;17.23;;;512.50;2380.80;;;;;;5033173;28;20059;-76
2023/11/02 07:32:58;;;;;;;28.25;17.70;;;538.00;2406.40;;;;;;5043119;28;20029;-75
2023/11/02 07:35:25;;;;;;;33.92;21.35;;;512.40;2380.80;;;;;;5031181;28;20021;-75
2023/11/02 07:37:51;;;;;;;40.17;27.60;;;487.10;2380.80;;;;;;5024919;28;20650;-75
2023/11/02 07:40:20;;;;;;;43.50;38.38;;;538.00;2406.40;;;;;;5037331;28;20025;-75
2023/11/02 07:42:46;;;;;;;44.47;33.47;;;563.20;2380.80;;;;;;5047920;28;20029;-76
2023/11/02 07:45:12;;;;;;;50.80;30.75;;;588.80;2278.40;;;;;;5042820;28;20075;-76
2023/11/02 07:47:38;;;;;;;38.90;25.52;;;614.50;2124.80;;;;;;5044038;28;20033;-74
2023/11/02 07:50:04;;;;;;;31.73;23.45;;;640.20;2022.40;;;;;;5030442;28;20436;-74
2023/11/02 07:52:30;;;;;;;29.92;21.38;;;640.20;1996.80;;;;;;5032176;28;20044;-72
2023/11/02 07:54:59;;;;;;;27.92;21.38;;;640.00;2022.40;;;;;;5037351;28;20345;-74
2023/11/02 07:57:27;;;;;;;33.45;21.48;;;640.50;1971.20;;;;;;5047772;28;20032;-70
2023/11/02 07:59:53;;;;;;;26.00;19.80;;;692.10;1817.60;;;;;;5048882;28;20029;-71
2023/11/02 08:02:19;;;;;;;22.88;17.85;;;742.50;1766.40;;;;;;5048727;28;20573;-69
2023/11/02 08:04:45;;;;;;;22.63;18.98;;;742.70;1715.20;;;;;;5050220;28;20308;-69
2023/11/02 08:07:11;;;;;;;27.42;21.73;;;742.60;1689.60;;;;;;5049063;28;20017;-71
2023/11/02 08:09:37;;;;;;;36.75;25.15;;;742.60;1664.00;;;;;;5029541;28;20029;-71
2023/11/02 08:12:10;;;;;;;36.83;30.77;;;742.90;1638.40;;;;;;5042712;28;20049;-69
2023/11/02 08:14:36;;;;;;;30.50;24.58;;;742.70;1664.00;;;;;;5048230;28;20459;-69
2023/11/02 08:17:03;;;;;;;26.58;19.63;;;742.80;1638.40;;;;;;5046684;28;20029;-69
2023/11/02 08:19:29;;;;;;;26.75;18.50;;;742.60;1638.40;;;;;;5029941;28;20192;-70
2023/11/02 08:21:55;;;;;;;22.13;14.57;;;717.20;1664.00;;;;;;5035910;28;20033;-70
2023/11/02 08:24:21;;;;;;;21.92;13.32;;;742.60;1638.40;;;;;;5036827;28;20028;-70
2023/11/02 08:26:47;;;;;;;15.73;12.27;;;768.40;1536.00;;;;;;5029987;28;20101;-70
2023/11/02 08:29:13;;;;;;;20.95;13.55;;;819.40;1459.20;;;;;;5041394;28;20454;-70
2023/11/02 08:31:39;;;;;;;18.73;12.60;;;794.00;1484.80;;;;;;5048617;28;20049;-71
2023/11/02 08:34:05;;;;;;;10.43;7.63;;;845.10;1433.60;;;;;;5038705;28;20024;-70
2023/11/02 08:36:31;;;;;;;17.15;10.38;;;794.50;1408.00;;;;;;5048889;28;20036;-70
2023/11/02 08:38:57;;;;;;;4.90;3.30;;;819.80;1382.40;;;;;;5046066;28;20076;-71
2023/11/02 08:41:24;;;;;;;6.63;2.90;;;845.20;1280.00;;;;;;5029827;28;20029;-70
2023/11/02 08:43:50;;;;;;;3.28;2.55;;;845.60;1280.00;;;;;;5045464;28;20087;-71
2023/11/02 08:46:24;;;;;;;3.90;2.83;;;871.00;1228.80;;;;;;5049128;28;20025;-69
2023/11/02 08:48:51;;;;;;;3.45;2.65;;;896.20;1203.20;;;;;;5049080;28;20432;-70
2023/11/02 08:51:22;;;;;;;3.55;2.63;;;870.50;1228.80;;;;;;5049062;28;20040;-71
2023/11/02 08:53:48;;;;;;;5.18;2.67;;;870.40;1228.80;;;;;;5031684;28;20028;-71
2023/11/02 08:56:14;;;;;;;4.30;2.40;;;870.70;1228.80;;;;;;5042732;28;20029;-69
2023/11/02 08:58:44;;;;;;;5.20;3.08;;;870.90;1203.20;;;;;;5022734;28;20025;-72
2023/11/02 09:01:10;;;;;;;6.28;2.65;;;870.60;1228.80;;;;;;5051118;28;20112;-71
2023/11/02 09:03:38;;;;;;;3.88;2.67;;;870.90;1228.80;;;;;;5044929;28;20037;-70
2023/11/02 09:06:07;;;;;;;4.90;3.05;;;845.00;1280.00;;;;;;5042948;28;20379;-70
2023/11/02 09:08:35;;;;;;;7.65;3.08;;;819.60;1280.00;;;;;;5041418;28;20032;-69
2023/11/02 09:11:02;;;;;;;4.80;2.45;;;793.70;1331.20;;;;;;5023550;28;20029;-70
2023/11/02 09:13:29;;;;;;;3.60;2.92;;;768.30;1331.20;;;;;;5025308;28;20116;-71
2023/11/02 09:15:54;;;;;;;3.33;2.38;;;742.60;1382.40;;;;;;5033497;28;20052;-68
2023/11/02 09:18:21;;;;;;;3.80;2.55;;;716.90;1433.60;;;;;;5033221;28;20053;-68
2023/11/02 09:20:49;;;;;;;5.35;2.40;;;691.60;1433.60;;;;;;5034464;28;20042;-69
2023/11/02 09:23:18;;;;;;;5.32;2.55;;;665.90;1510.40;;;;;;5045645;28;20068;-68
2023/11/02 09:25:46;;;;;;;3.83;2.42;;;640.50;1510.40;;;;;;5047711;28;20022;-68
2023/11/02 09:28:16;;;;;;;3.67;2.00;;;615.20;1561.60;;;;;;5050881;28;20029;-67
2023/11/02 09:30:43;;;;;;;2.42;1.67;;;614.70;1612.80;;;;;;5046427;28;20075;-68
2023/11/02 09:33:09;;;;;;;3.45;1.90;;;614.60;1612.80;;;;;;5037522;28;20361;-70
2023/11/02 09:35:35;;;;;;;3.25;1.88;;;589.70;1638.40;;;;;;5044145;28;20029;-67
2023/11/02 09:38:01;;;;;;;3.95;1.90;;;589.70;1638.40;;;;;;5047397;28;20036;-70
2023/11/02 09:40:27;;;;;;;5.05;2.40;;;589.60;1638.40;;;;;;5039181;28;20017;-69
2023/11/02 09:42:53;;;;;;;6.53;2.55;;;589.20;1664.00;;;;;;5046757;28;20031;-69
2023/11/02 09:45:20;;;;;;;4.82;2.85;;;588.90;1664.00;;;;;;5051580;28;20463;-70
2023/11/02 09:47:46;;;;;;;5.53;3.13;;;589.10;1715.20;;;;;;5051902;28;20049;-68
2023/11/02 09:50:15;;;;;;;5.93;3.10;;;589.20;1689.60;;;;;;5052379;28;20417;-69
2023/11/02 09:52:41;;;;;;;3.83;2.70;;;589.00;1715.20;;;;;;5051879;28;20021;-70
2023/11/02 09:55:09;;;;;;;5.80;3.20;;;588.80;1715.20;;;;;;5052218;28;20028;-69
2023/11/02 09:57:36;;;;;;;7.47;3.92;;;564.00;1766.40;;;;;;5051898;28;20029;-69
2023/11/02 10:00:07;;;;;;;6.38;3.30;;;;;;;;;;5041119;28;20033;-69
2023/11/02 10:02:33;;;;;;;4.75;3.42;;;;;;;;;;5049552;28;20112;-68
2023/11/02 10:04:59;;;;;;;5.22;3.20;;;588.90;1715.20;;;;;;5051914;28;20104;-69
2023/11/02 10:07:25;;;;;;;6.18;2.60;;;588.80;1740.80;;;;;;5051717;28;20021;-70
2023/11/02 10:09:52;;;;;;;4.45;2.78;;;588.90;1740.80;;;;;;5051759;28;20029;-69
2023/11/02 10:12:18;;;;;;;3.97;2.40;;;588.90;1740.80;;;;;;5039992;28;20174;-69
2023/11/02 10:14:44;;;;;;;3.42;2.33;;;588.80;1740.80;;;;;;5041969;28;20025;-69
2023/11/02 10:17:14;;;;;;;4.35;2.40;;;588.90;1766.40;;;;;;5051371;28;20356;-69
2023/11/02 10:19:40;;;;;;;3.10;1.50;;;588.90;1740.80;;;;;;5037821;28;20031;-70
2023/11/02 10:22:06;;;;;;;4.38;1.60;;;589.00;1664.00;;;;;;5051055;28;20049;-69
2023/11/02 10:24:36;;;;;;;1.88;1.20;;;589.00;1689.60;;;;;;5050963;28;20021;-69
2023/11/02 10:27:04;;;;;;;2.20;1.20;;;589.00;1664.00;;;;;;5050992;28;20029;-69
2023/11/02 10:29:30;;;;;;;3.15;1.48;;;589.00;1664.00;;;;;;5050865;28;20749;-76
2023/11/02 10:31:57;;;;;;;3.40;1.50;;;588.80;1689.60;;;;;;5051358;28;20048;-75
2023/11/02 10:34:26;;;;;;;2.47;1.50;;;564.10;1715.20;;;;;;5050949;28;20021;-76
2023/11/02 10:36:54;;;;;;;4.07;2.33;;;564.10;1689.60;;;;;;5050943;28;20021;-76
2023/11/02 10:39:20;;;;;;;5.40;2.53;;;564.10;1715.20;;;;;;5037065;28;20053;-71
2023/11/02 10:41:59;;;;;;;5.00;2.88;;;563.90;1740.80;;;;;;5027370;28;20068;-76
2023/11/02 10:44:28;;;;;;;4.07;1.50;;;564.10;1715.20;;;;;;5038206;28;20025;-76
2023/11/02 10:47:05;;;;;;;2.40;1.40;;;564.00;1740.80;;;;;;5038250;28;20067;-75
2023/11/02 10:49:35;;;;;;;2.90;1.42;;;564.10;1715.20;;;;;;5046369;28;20054;-76
2023/11/02 10:52:08;;;;;;;2.63;1.67;;;;;;;;;;5041641;28;20029;-74
2023/11/02 10:54:39;;;;;;;3.53;1.70;;;;;;;;;;5036060;28;20026;-72
2023/11/02 10:57:24;;;;;;;2.75;1.27;;;;;;;;;;5035643;28;20025;-71
2023/11/02 10:59:50;;;;;;;2.15;1.20;;;;;;;;;;5049092;28;20067;-72
2023/11/02 11:02:17;;;;;;;2.78;1.42;;;;;;;;;;5044798;28;20128;-74
2023/11/02 11:04:43;;;;;;;3.20;1.20;;;;;;;;;;5040261;28;20029;-71
2023/11/02 11:07:10;;;;;;;1.75;1.27;;;;;;;;;;5033428;28;20458;-75
2023/11/02 11:09:38;;;;;;;1.67;1.17;;;;;;;;;;5039645;28;20030;-76
2023/11/02 11:12:05;;;;;;;3.72;1.85;;;564.00;1689.60;;;;;;5024498;28;20083;-76
2023/11/02 11:14:45;;;;;;;2.67;1.58;;;563.70;1715.20;;;;;;5037061;28;20025;-71
2023/11/02 11:17:12;;;;;;;2.13;1.50;;;563.70;1715.20;;;;;;5050115;28;20032;-77
2023/11/02 11:19:39;;;;;;;2.15;1.60;;;563.60;1740.80;;;;;;5050107;28;20029;-76
2023/11/02 11:22:14;;;;;;;4.57;1.40;;;563.60;1740.80;;;;;;5050298;28;20037;-76
2023/11/02 11:24:40;;;;;;;1.85;1.20;;;563.80;1740.80;;;;;;5049091;28;20021;-77
2023/11/02 11:27:07;;;;;;;2.47;1.35;;;563.90;1715.20;;;;;;5050141;28;20083;-76
2023/11/02 11:29:42;;;;;;;3.47;1.60;;;564.00;1740.80;;;;;;5049463;28;20471;-76
2023/11/02 11:32:14;;;;;;;2.45;1.40;;;564.10;1715.20;;;;;;5050383;28;20041;-75
2023/11/02 11:34:55;;;;;;;3.42;1.52;;;564.00;1715.20;;;;;;5049890;28;20029;-76
2023/11/02 11:37:34;;;;;;;3.67;1.60;;;564.00;1715.20;;;;;;5049656;28;20025;-77
2023/11/02 11:40:03;;;;;;;3.30;1.67;;;564.00;1715.20;;;;;;5026231;28;20036;-76
2023/11/02 11:43:08;;;;;;;2.65;1.60;;;564.00;1689.60;;;;;;5030464;28;20112;-74
2023/11/02 11:45:45;;;;;;;2.00;1.50;;;564.10;1740.80;;;;;;5037579;28;20017;-73
2023/11/02 11:48:12;;;;;;;5.10;2.22;;;563.90;1715.20;;;;;;5049978;28;20021;-72
2023/11/02 11:50:44;;;;;;;4.20;1.50;;;563.90;1715.20;;;;;;5049743;28;20033;-72
2023/11/02 11:53:20;;;;;;;3.08;1.75;;;563.90;1715.20;;;;;;5049877;28;20029;-74
2023/11/02 11:55:55;;;;;;;2.70;1.30;;;563.80;1715.20;;;;;;5049750;28;20075;-73
2023/11/02 11:58:39;;;;;;;3.33;1.65;;;563.80;1715.20;;;;;;5050469;28;20020;-77
2023/11/02 12:01:05;;;;;;;2.40;1.30;;;563.80;1715.20;;;;;;5027049;28;20383;-77
2023/11/02 12:03:34;;;;;;;8.82;4.07;;;563.80;1740.80;;;;;;5050365;28;20029;-77
2023/11/02 12:06:04;;;;;;;4.65;1.95;;;563.70;1740.80;;;;;;5048857;28;20418;-78
2023/11/02 12:08:31;;;;;;;3.58;1.98;;;563.70;1766.40;;;;;;5036516;28;20422;-77
2023/11/02 12:10:59;;;;;;;2.88;1.92;;;563.80;1715.20;;;;;;5044362;28;20037;-73
2023/11/02 12:13:26;;;;;;;4.70;2.20;;;563.80;1740.80;;;;;;5027373;28;20025;-72
2023/11/02 12:15:58;;;;;;;3.15;1.60;;;563.80;1740.80;;;;;;5049292;28;20040;-71
2023/11/02 12:18:36;;;;;;;3.15;1.98;;;563.90;1740.80;;;;;;5049358;28;20025;-77
2023/11/02 12:21:10;;;;;;;4.65;2.25;;;563.90;1740.80;;;;;;5048879;28;20040;-77
2023/11/02 12:23:39;;;;;;;3.38;2.20;;;563.90;1766.40;;;;;;5049310;28;20025;-73
2023/11/02 12:26:06;;;;;;;2.22;1.50;;;563.90;1715.20;;;;;;5049151;28;20053;-75
2023/11/02 12:28:52;;;;;;;4.35;1.88;;;563.80;1715.20;;;;;;5023210;28;20379;-77